sensor_id;sensor_type;location;lat;lon;timestamp;P1;durP1;ratioP1;P2;durP2;ratioP2
66946;SDS011;53853;51.982;5.928;2022-09-13T00:01:36;5.97;;;5.28;;
66946;SDS011;53853;51.982;5.928;2022-09-13T00:04:08;5.50;;;4.30;;
66946;SDS011;53853;51.982;5.928;2022-09-13T00:06:38;6.65;;;5.07;;
66946;SDS011;53853;51.982;5.928;2022-09-13T00:09:08;8.57;;;6.05;;
66946;SDS011;53853;51.982;5.928;2022-09-13T00:11:38;7.43;;;5.40;;
66946;SDS011;53853;51.982;5.928;2022-09-13T00:14:08;7.75;;;6.05;;
66946;SDS011;53853;51.982;5.928;2022-09-13T00:16:38;6.40;;;5.53;;
66946;SDS011;53853;51.982;5.928;2022-09-13T00:19:10;7.00;;;6.30;;
66946;SDS011;53853;51.982;5.928;2022-09-13T00:21:40;7.38;;;5.38;;
66946;SDS011;53853;51.982;5.928;2022-09-13T00:24:10;6.75;;;5.95;;
66946;SDS011;53853;51.982;5.928;2022-09-13T00:26:40;7.25;;;5.30;;
66946;SDS011;53853;51.982;5.928;2022-09-13T00:29:10;6.47;;;5.55;;
66946;SDS011;53853;51.982;5.928;2022-09-13T00:31:39;7.22;;;6.32;;
66946;SDS011;53853;51.982;5.928;2022-09-13T00:34:12;8.63;;;6.78;;
66946;SDS011;53853;51.982;5.928;2022-09-13T00:36:42;6.85;;;5.80;;
66946;SDS011;53853;51.982;5.928;2022-09-13T00:39:12;6.43;;;5.68;;
66946;SDS011;53853;51.982;5.928;2022-09-13T00:41:42;7.68;;;6.88;;
66946;SDS011;53853;51.982;5.928;2022-09-13T00:47:12;7.32;;;6.40;;
66946;SDS011;53853;51.982;5.928;2022-09-13T00:49:47;7.55;;;6.78;;
66946;SDS011;53853;51.982;5.928;2022-09-13T00:52:21;9.18;;;6.00;;
66946;SDS011;53853;51.982;5.928;2022-09-13T00:54:55;7.35;;;6.15;;
66946;SDS011;53853;51.982;5.928;2022-09-13T00:57:29;7.72;;;5.90;;
66946;SDS011;53853;51.982;5.928;2022-09-13T01:00:03;7.45;;;6.45;;
66946;SDS011;53853;51.982;5.928;2022-09-13T01:02:39;7.82;;;5.75;;
66946;SDS011;53853;51.982;5.928;2022-09-13T01:05:15;7.88;;;5.90;;
66946;SDS011;53853;51.982;5.928;2022-09-13T01:07:48;6.60;;;5.60;;
66946;SDS011;53853;51.982;5.928;2022-09-13T01:10:18;5.78;;;4.97;;
66946;SDS011;53853;51.982;5.928;2022-09-13T01:12:49;7.97;;;7.07;;
66946;SDS011;53853;51.982;5.928;2022-09-13T01:15:22;8.95;;;7.57;;
66946;SDS011;53853;51.982;5.928;2022-09-13T01:17:52;8.65;;;7.32;;
66946;SDS011;53853;51.982;5.928;2022-09-13T01:20:29;8.02;;;6.40;;
66946;SDS011;53853;51.982;5.928;2022-09-13T01:23:26;8.38;;;6.90;;
66946;SDS011;53853;51.982;5.928;2022-09-13T01:29:38;7.45;;;6.75;;
66946;SDS011;53853;51.982;5.928;2022-09-13T01:32:34;7.85;;;6.80;;
66946;SDS011;53853;51.982;5.928;2022-09-13T01:35:18;5.20;;;4.47;;
66946;SDS011;53853;51.982;5.928;2022-09-13T01:37:56;7.03;;;5.85;;
66946;SDS011;53853;51.982;5.928;2022-09-13T01:40:37;7.00;;;6.18;;
66946;SDS011;53853;51.982;5.928;2022-09-13T01:43:22;7.47;;;6.65;;
66946;SDS011;53853;51.982;5.928;2022-09-13T01:46:02;8.07;;;7.28;;
66946;SDS011;53853;51.982;5.928;2022-09-13T01:48:41;7.30;;;5.43;;
66946;SDS011;53853;51.982;5.928;2022-09-13T01:51:23;8.55;;;7.75;;
66946;SDS011;53853;51.982;5.928;2022-09-13T01:56:56;8.52;;;7.72;;
66946;SDS011;53853;51.982;5.928;2022-09-13T01:59:35;5.60;;;4.78;;
66946;SDS011;53853;51.982;5.928;2022-09-13T02:02:11;6.18;;;4.68;;
66946;SDS011;53853;51.982;5.928;2022-09-13T02:04:50;4.43;;;3.80;;
66946;SDS011;53853;51.982;5.928;2022-09-13T02:07:24;3.75;;;3.30;;
66946;SDS011;53853;51.982;5.928;2022-09-13T02:10:01;4.55;;;4.03;;
66946;SDS011;53853;51.982;5.928;2022-09-13T02:12:33;9.93;;;8.70;;
66946;SDS011;53853;51.982;5.928;2022-09-13T02:15:08;9.85;;;8.85;;
66946;SDS011;53853;51.982;5.928;2022-09-13T02:17:45;6.05;;;5.25;;
66946;SDS011;53853;51.982;5.928;2022-09-13T02:20:23;7.35;;;4.65;;
66946;SDS011;53853;51.982;5.928;2022-09-13T02:22:59;5.65;;;5.13;;
66946;SDS011;53853;51.982;5.928;2022-09-13T02:25:32;6.35;;;4.57;;
66946;SDS011;53853;51.982;5.928;2022-09-13T02:28:06;3.85;;;3.45;;
66946;SDS011;53853;51.982;5.928;2022-09-13T02:30:42;5.15;;;4.65;;
66946;SDS011;53853;51.982;5.928;2022-09-13T02:33:17;5.53;;;4.88;;
66946;SDS011;53853;51.982;5.928;2022-09-13T02:35:56;6.07;;;5.47;;
66946;SDS011;53853;51.982;5.928;2022-09-13T02:38:30;7.30;;;6.38;;
66946;SDS011;53853;51.982;5.928;2022-09-13T02:41:04;5.22;;;4.43;;
66946;SDS011;53853;51.982;5.928;2022-09-13T02:43:41;8.52;;;7.20;;
66946;SDS011;53853;51.982;5.928;2022-09-13T02:46:19;6.55;;;5.82;;
66946;SDS011;53853;51.982;5.928;2022-09-13T02:48:57;10.23;;;8.48;;
66946;SDS011;53853;51.982;5.928;2022-09-13T02:51:39;9.57;;;8.18;;
66946;SDS011;53853;51.982;5.928;2022-09-13T02:54:20;11.27;;;9.77;;
66946;SDS011;53853;51.982;5.928;2022-09-13T02:56:58;7.53;;;6.70;;
66946;SDS011;53853;51.982;5.928;2022-09-13T02:59:33;5.95;;;5.35;;
66946;SDS011;53853;51.982;5.928;2022-09-13T03:02:05;10.27;;;8.18;;
66946;SDS011;53853;51.982;5.928;2022-09-13T03:04:38;9.77;;;8.77;;
66946;SDS011;53853;51.982;5.928;2022-09-13T03:07:12;12.18;;;8.65;;
66946;SDS011;53853;51.982;5.928;2022-09-13T03:12:29;8.93;;;7.57;;
66946;SDS011;53853;51.982;5.928;2022-09-13T03:15:32;8.73;;;7.40;;
66946;SDS011;53853;51.982;5.928;2022-09-13T03:18:16;5.85;;;5.22;;
66946;SDS011;53853;51.982;5.928;2022-09-13T03:20:58;7.73;;;6.67;;
66946;SDS011;53853;51.982;5.928;2022-09-13T03:23:41;6.30;;;5.65;;
66946;SDS011;53853;51.982;5.928;2022-09-13T03:26:25;7.50;;;6.80;;
66946;SDS011;53853;51.982;5.928;2022-09-13T03:29:07;8.48;;;5.75;;
66946;SDS011;53853;51.982;5.928;2022-09-13T03:31:42;7.18;;;6.20;;
66946;SDS011;53853;51.982;5.928;2022-09-13T03:34:17;10.73;;;8.75;;
66946;SDS011;53853;51.982;5.928;2022-09-13T03:37:00;8.60;;;6.97;;
66946;SDS011;53853;51.982;5.928;2022-09-13T03:39:38;5.70;;;5.10;;
66946;SDS011;53853;51.982;5.928;2022-09-13T03:42:13;5.57;;;4.82;;
66946;SDS011;53853;51.982;5.928;2022-09-13T03:44:50;5.00;;;4.47;;
66946;SDS011;53853;51.982;5.928;2022-09-13T03:47:23;6.43;;;5.80;;
66946;SDS011;53853;51.982;5.928;2022-09-13T03:49:57;8.35;;;6.63;;
66946;SDS011;53853;51.982;5.928;2022-09-13T03:52:28;5.10;;;4.55;;
66946;SDS011;53853;51.982;5.928;2022-09-13T03:55:01;8.38;;;6.55;;
66946;SDS011;53853;51.982;5.928;2022-09-13T03:57:31;7.53;;;6.28;;
66946;SDS011;53853;51.982;5.928;2022-09-13T04:00:01;5.63;;;5.03;;
66946;SDS011;53853;51.982;5.928;2022-09-13T04:02:37;8.70;;;7.00;;
66946;SDS011;53853;51.982;5.928;2022-09-13T04:05:07;7.25;;;6.55;;
66946;SDS011;53853;51.982;5.928;2022-09-13T04:07:37;7.38;;;6.60;;
66946;SDS011;53853;51.982;5.928;2022-09-13T04:10:10;6.70;;;6.10;;
66946;SDS011;53853;51.982;5.928;2022-09-13T04:12:40;7.72;;;6.90;;
66946;SDS011;53853;51.982;5.928;2022-09-13T04:15:09;7.90;;;7.10;;
66946;SDS011;53853;51.982;5.928;2022-09-13T04:17:39;5.90;;;5.15;;
66946;SDS011;53853;51.982;5.928;2022-09-13T04:20:09;6.25;;;5.18;;
66946;SDS011;53853;51.982;5.928;2022-09-13T04:22:39;7.28;;;6.53;;
66946;SDS011;53853;51.982;5.928;2022-09-13T04:25:12;7.65;;;6.22;;
66946;SDS011;53853;51.982;5.928;2022-09-13T04:27:42;7.78;;;6.93;;
66946;SDS011;53853;51.982;5.928;2022-09-13T04:30:12;7.80;;;7.10;;
66946;SDS011;53853;51.982;5.928;2022-09-13T04:32:42;6.80;;;6.10;;
66946;SDS011;53853;51.982;5.928;2022-09-13T04:35:12;7.35;;;6.55;;
66946;SDS011;53853;51.982;5.928;2022-09-13T04:37:44;6.30;;;5.65;;
66946;SDS011;53853;51.982;5.928;2022-09-13T04:40:16;5.93;;;4.53;;
66946;SDS011;53853;51.982;5.928;2022-09-13T04:42:47;7.03;;;6.00;;
66946;SDS011;53853;51.982;5.928;2022-09-13T04:45:17;5.32;;;4.55;;
66946;SDS011;53853;51.982;5.928;2022-09-13T04:47:49;7.22;;;5.28;;
66946;SDS011;53853;51.982;5.928;2022-09-13T04:50:20;6.60;;;5.72;;
66946;SDS011;53853;51.982;5.928;2022-09-13T04:52:52;7.43;;;6.55;;
66946;SDS011;53853;51.982;5.928;2022-09-13T04:55:25;7.95;;;6.75;;
66946;SDS011;53853;51.982;5.928;2022-09-13T04:57:55;8.30;;;6.65;;
66946;SDS011;53853;51.982;5.928;2022-09-13T05:00:25;7.85;;;6.78;;
66946;SDS011;53853;51.982;5.928;2022-09-13T05:02:55;8.00;;;6.30;;
66946;SDS011;53853;51.982;5.928;2022-09-13T05:05:25;6.88;;;6.18;;
66946;SDS011;53853;51.982;5.928;2022-09-13T05:07:57;6.03;;;5.43;;
66946;SDS011;53853;51.982;5.928;2022-09-13T05:10:29;7.43;;;6.68;;
66946;SDS011;53853;51.982;5.928;2022-09-13T05:12:59;9.88;;;7.40;;
66946;SDS011;53853;51.982;5.928;2022-09-13T05:15:29;7.47;;;6.18;;
66946;SDS011;53853;51.982;5.928;2022-09-13T05:17:59;6.38;;;5.55;;
66946;SDS011;53853;51.982;5.928;2022-09-13T05:20:28;6.82;;;5.28;;
66946;SDS011;53853;51.982;5.928;2022-09-13T05:22:58;5.65;;;5.05;;
66946;SDS011;53853;51.982;5.928;2022-09-13T05:25:30;7.55;;;6.85;;
66946;SDS011;53853;51.982;5.928;2022-09-13T05:28:00;8.43;;;7.53;;
66946;SDS011;53853;51.982;5.928;2022-09-13T05:30:30;9.25;;;7.88;;
66946;SDS011;53853;51.982;5.928;2022-09-13T05:33:00;8.18;;;6.88;;
66946;SDS011;53853;51.982;5.928;2022-09-13T05:35:30;7.45;;;6.50;;
66946;SDS011;53853;51.982;5.928;2022-09-13T05:37:59;6.97;;;6.28;;
66946;SDS011;53853;51.982;5.928;2022-09-13T05:40:32;6.55;;;5.80;;
66946;SDS011;53853;51.982;5.928;2022-09-13T05:43:01;12.60;;;10.90;;
66946;SDS011;53853;51.982;5.928;2022-09-13T05:45:31;12.50;;;11.20;;
66946;SDS011;53853;51.982;5.928;2022-09-13T05:48:01;14.52;;;11.68;;
66946;SDS011;53853;51.982;5.928;2022-09-13T05:50:31;9.32;;;8.43;;
66946;SDS011;53853;51.982;5.928;2022-09-13T05:53:04;6.68;;;5.97;;
66946;SDS011;53853;51.982;5.928;2022-09-13T05:55:37;6.85;;;6.15;;
66946;SDS011;53853;51.982;5.928;2022-09-13T05:58:07;9.00;;;8.10;;
66946;SDS011;53853;51.982;5.928;2022-09-13T06:00:36;6.30;;;5.35;;
66946;SDS011;53853;51.982;5.928;2022-09-13T06:03:06;7.15;;;6.45;;
66946;SDS011;53853;51.982;5.928;2022-09-13T06:05:36;10.70;;;9.10;;
66946;SDS011;53853;51.982;5.928;2022-09-13T06:08:06;10.88;;;9.77;;
66946;SDS011;53853;51.982;5.928;2022-09-13T06:10:38;8.68;;;7.60;;
66946;SDS011;53853;51.982;5.928;2022-09-13T06:13:08;9.85;;;8.02;;
66946;SDS011;53853;51.982;5.928;2022-09-13T06:15:38;6.75;;;6.15;;
66946;SDS011;53853;51.982;5.928;2022-09-13T06:18:08;9.90;;;8.30;;
66946;SDS011;53853;51.982;5.928;2022-09-13T06:20:37;9.50;;;8.50;;
66946;SDS011;53853;51.982;5.928;2022-09-13T06:23:07;13.27;;;11.98;;
66946;SDS011;53853;51.982;5.928;2022-09-13T06:25:40;14.45;;;12.95;;
66946;SDS011;53853;51.982;5.928;2022-09-13T06:28:10;11.68;;;9.93;;
66946;SDS011;53853;51.982;5.928;2022-09-13T06:30:39;9.00;;;8.10;;
66946;SDS011;53853;51.982;5.928;2022-09-13T06:33:09;9.00;;;8.00;;
66946;SDS011;53853;51.982;5.928;2022-09-13T06:35:39;8.23;;;7.43;;
66946;SDS011;53853;51.982;5.928;2022-09-13T06:38:09;9.02;;;7.80;;
66946;SDS011;53853;51.982;5.928;2022-09-13T06:40:41;10.32;;;9.27;;
66946;SDS011;53853;51.982;5.928;2022-09-13T06:43:11;10.40;;;9.02;;
66946;SDS011;53853;51.982;5.928;2022-09-13T06:45:41;9.32;;;8.32;;
66946;SDS011;53853;51.982;5.928;2022-09-13T06:48:10;9.80;;;8.80;;
66946;SDS011;53853;51.982;5.928;2022-09-13T06:50:40;14.13;;;11.75;;
66946;SDS011;53853;51.982;5.928;2022-09-13T06:53:10;10.35;;;9.35;;
66946;SDS011;53853;51.982;5.928;2022-09-13T06:55:42;11.32;;;10.13;;
66946;SDS011;53853;51.982;5.928;2022-09-13T06:58:12;11.68;;;9.57;;
66946;SDS011;53853;51.982;5.928;2022-09-13T07:00:42;10.32;;;9.20;;
66946;SDS011;53853;51.982;5.928;2022-09-13T07:03:12;14.63;;;11.63;;
66946;SDS011;53853;51.982;5.928;2022-09-13T07:05:41;14.43;;;12.20;;
66946;SDS011;53853;51.982;5.928;2022-09-13T07:08:11;15.38;;;13.75;;
66946;SDS011;53853;51.982;5.928;2022-09-13T07:10:43;13.60;;;12.07;;
66946;SDS011;53853;51.982;5.928;2022-09-13T07:13:13;10.73;;;9.20;;
66946;SDS011;53853;51.982;5.928;2022-09-13T07:15:43;16.98;;;13.73;;
66946;SDS011;53853;51.982;5.928;2022-09-13T07:18:13;15.98;;;13.82;;
66946;SDS011;53853;51.982;5.928;2022-09-13T07:20:43;11.18;;;9.52;;
66946;SDS011;53853;51.982;5.928;2022-09-13T07:23:12;19.67;;;17.25;;
66946;SDS011;53853;51.982;5.928;2022-09-13T07:25:51;19.17;;;17.13;;
66946;SDS011;53853;51.982;5.928;2022-09-13T07:28:27;23.27;;;18.75;;
66946;SDS011;53853;51.982;5.928;2022-09-13T07:31:03;20.48;;;18.10;;
66946;SDS011;53853;51.982;5.928;2022-09-13T07:33:34;18.70;;;16.70;;
66946;SDS011;53853;51.982;5.928;2022-09-13T07:36:05;17.13;;;13.98;;
66946;SDS011;53853;51.982;5.928;2022-09-13T07:38:37;15.68;;;13.57;;
66946;SDS011;53853;51.982;5.928;2022-09-13T07:41:12;20.13;;;15.90;;
66946;SDS011;53853;51.982;5.928;2022-09-13T07:43:44;21.75;;;17.42;;
66946;SDS011;53853;51.982;5.928;2022-09-13T07:46:17;16.45;;;14.35;;
66946;SDS011;53853;51.982;5.928;2022-09-13T07:48:47;18.52;;;14.68;;
66946;SDS011;53853;51.982;5.928;2022-09-13T07:51:19;21.63;;;18.05;;
66946;SDS011;53853;51.982;5.928;2022-09-13T07:53:51;22.58;;;16.60;;
66946;SDS011;53853;51.982;5.928;2022-09-13T07:59:00;12.18;;;10.45;;
66946;SDS011;53853;51.982;5.928;2022-09-13T08:01:33;14.57;;;11.57;;
66946;SDS011;53853;51.982;5.928;2022-09-13T08:04:04;10.35;;;9.13;;
66946;SDS011;53853;51.982;5.928;2022-09-13T08:06:36;11.27;;;9.35;;
66946;SDS011;53853;51.982;5.928;2022-09-13T08:09:08;8.18;;;6.93;;
66946;SDS011;53853;51.982;5.928;2022-09-13T08:11:41;10.48;;;8.60;;
66946;SDS011;53853;51.982;5.928;2022-09-13T08:14:13;8.70;;;6.30;;
66946;SDS011;53853;51.982;5.928;2022-09-13T08:16:44;8.60;;;5.55;;
66946;SDS011;53853;51.982;5.928;2022-09-13T08:19:15;8.13;;;5.90;;
66946;SDS011;53853;51.982;5.928;2022-09-13T08:21:46;7.97;;;6.40;;
66946;SDS011;53853;51.982;5.928;2022-09-13T08:24:17;7.15;;;4.90;;
66946;SDS011;53853;51.982;5.928;2022-09-13T08:26:52;7.13;;;5.20;;
66946;SDS011;53853;51.982;5.928;2022-09-13T08:29:22;8.88;;;7.03;;
66946;SDS011;53853;51.982;5.928;2022-09-13T08:31:52;13.98;;;10.85;;
66946;SDS011;53853;51.982;5.928;2022-09-13T08:34:22;15.52;;;11.50;;
66946;SDS011;53853;51.982;5.928;2022-09-13T08:36:52;12.30;;;10.73;;
66946;SDS011;53853;51.982;5.928;2022-09-13T08:39:22;16.17;;;13.60;;
66946;SDS011;53853;51.982;5.928;2022-09-13T08:42:01;13.63;;;11.10;;
66946;SDS011;53853;51.982;5.928;2022-09-13T08:44:39;18.33;;;15.10;;
66946;SDS011;53853;51.982;5.928;2022-09-13T08:47:25;19.27;;;15.35;;
66946;SDS011;53853;51.982;5.928;2022-09-13T08:50:02;18.42;;;15.30;;
66946;SDS011;53853;51.982;5.928;2022-09-13T08:52:40;17.70;;;14.90;;
66946;SDS011;53853;51.982;5.928;2022-09-13T08:55:33;17.48;;;15.68;;
66946;SDS011;53853;51.982;5.928;2022-09-13T08:58:19;16.33;;;14.73;;
66946;SDS011;53853;51.982;5.928;2022-09-13T09:01:02;15.07;;;11.82;;
66946;SDS011;53853;51.982;5.928;2022-09-13T09:03:38;16.75;;;14.00;;
66946;SDS011;53853;51.982;5.928;2022-09-13T09:06:14;14.45;;;12.63;;
66946;SDS011;53853;51.982;5.928;2022-09-13T09:08:46;8.75;;;7.85;;
66946;SDS011;53853;51.982;5.928;2022-09-13T09:11:21;11.80;;;10.60;;
66946;SDS011;53853;51.982;5.928;2022-09-13T09:14:04;13.18;;;11.52;;
66946;SDS011;53853;51.982;5.928;2022-09-13T09:16:40;12.18;;;10.55;;
66946;SDS011;53853;51.982;5.928;2022-09-13T09:19:16;10.88;;;9.77;;
66946;SDS011;53853;51.982;5.928;2022-09-13T09:21:51;15.27;;;10.98;;
66946;SDS011;53853;51.982;5.928;2022-09-13T09:24:22;8.32;;;6.15;;
66946;SDS011;53853;51.982;5.928;2022-09-13T09:26:53;8.43;;;6.78;;
66946;SDS011;53853;51.982;5.928;2022-09-13T09:29:28;10.18;;;7.97;;
66946;SDS011;53853;51.982;5.928;2022-09-13T09:32:04;14.38;;;8.55;;
66946;SDS011;53853;51.982;5.928;2022-09-13T09:34:47;9.10;;;7.78;;
66946;SDS011;53853;51.982;5.928;2022-09-13T09:37:26;7.82;;;6.32;;
66946;SDS011;53853;51.982;5.928;2022-09-13T09:39:58;11.30;;;8.82;;
66946;SDS011;53853;51.982;5.928;2022-09-13T09:42:37;9.93;;;7.75;;
66946;SDS011;53853;51.982;5.928;2022-09-13T09:45:21;7.93;;;6.72;;
66946;SDS011;53853;51.982;5.928;2022-09-13T09:47:54;6.00;;;5.10;;
66946;SDS011;53853;51.982;5.928;2022-09-13T09:50:29;6.65;;;5.03;;
66946;SDS011;53853;51.982;5.928;2022-09-13T09:53:02;6.30;;;4.40;;
66946;SDS011;53853;51.982;5.928;2022-09-13T09:55:39;9.00;;;5.35;;
66946;SDS011;53853;51.982;5.928;2022-09-13T09:58:13;7.00;;;5.55;;
66946;SDS011;53853;51.982;5.928;2022-09-13T10:00:52;6.22;;;5.35;;
66946;SDS011;53853;51.982;5.928;2022-09-13T10:03:25;5.88;;;5.15;;
66946;SDS011;53853;51.982;5.928;2022-09-13T10:06:02;5.70;;;4.40;;
66946;SDS011;53853;51.982;5.928;2022-09-13T10:08:35;7.13;;;5.13;;
66946;SDS011;53853;51.982;5.928;2022-09-13T10:11:07;7.18;;;6.00;;
66946;SDS011;53853;51.982;5.928;2022-09-13T10:13:38;7.85;;;6.43;;
66946;SDS011;53853;51.982;5.928;2022-09-13T10:16:29;6.70;;;6.05;;
66946;SDS011;53853;51.982;5.928;2022-09-13T10:21:58;6.57;;;5.75;;
66946;SDS011;53853;51.982;5.928;2022-09-13T10:24:30;8.27;;;5.03;;
66946;SDS011;53853;51.982;5.928;2022-09-13T10:27:00;6.97;;;6.28;;
66946;SDS011;53853;51.982;5.928;2022-09-13T10:29:31;6.18;;;4.50;;
66946;SDS011;53853;51.982;5.928;2022-09-13T10:32:06;7.68;;;6.10;;
66946;SDS011;53853;51.982;5.928;2022-09-13T10:34:40;6.13;;;4.30;;
66946;SDS011;53853;51.982;5.928;2022-09-13T10:37:14;7.72;;;5.25;;
66946;SDS011;53853;51.982;5.928;2022-09-13T10:39:52;5.22;;;4.63;;
66946;SDS011;53853;51.982;5.928;2022-09-13T10:42:27;6.13;;;4.43;;
66946;SDS011;53853;51.982;5.928;2022-09-13T10:44:58;4.78;;;3.83;;
66946;SDS011;53853;51.982;5.928;2022-09-13T10:47:33;3.78;;;2.83;;
66946;SDS011;53853;51.982;5.928;2022-09-13T10:50:15;5.10;;;3.67;;
66946;SDS011;53853;51.982;5.928;2022-09-13T10:52:47;3.70;;;3.25;;
66946;SDS011;53853;51.982;5.928;2022-09-13T10:55:31;5.85;;;4.28;;
66946;SDS011;53853;51.982;5.928;2022-09-13T11:06:56;4.50;;;2.42;;
66946;SDS011;53853;51.982;5.928;2022-09-13T11:09:40;5.60;;;2.42;;
66946;SDS011;53853;51.982;5.928;2022-09-13T11:12:16;4.88;;;2.28;;
66946;SDS011;53853;51.982;5.928;2022-09-13T11:14:55;4.47;;;2.97;;
66946;SDS011;53853;51.982;5.928;2022-09-13T11:17:52;5.05;;;2.05;;
66946;SDS011;53853;51.982;5.928;2022-09-13T11:20:51;3.13;;;1.70;;
66946;SDS011;53853;51.982;5.928;2022-09-13T11:26:37;3.60;;;1.83;;
66946;SDS011;53853;51.982;5.928;2022-09-13T11:29:18;3.55;;;1.90;;
66946;SDS011;53853;51.982;5.928;2022-09-13T11:32:02;3.08;;;1.85;;
66946;SDS011;53853;51.982;5.928;2022-09-13T11:34:44;2.72;;;1.33;;
66946;SDS011;53853;51.982;5.928;2022-09-13T11:37:30;3.92;;;1.63;;
66946;SDS011;53853;51.982;5.928;2022-09-13T11:43:03;3.83;;;1.48;;
66946;SDS011;53853;51.982;5.928;2022-09-13T11:45:49;3.13;;;1.70;;
66946;SDS011;53853;51.982;5.928;2022-09-13T11:51:26;5.50;;;1.20;;
66946;SDS011;53853;51.982;5.928;2022-09-13T11:54:11;6.28;;;0.90;;
66946;SDS011;53853;51.982;5.928;2022-09-13T11:57:04;5.68;;;1.40;;
66946;SDS011;53853;51.982;5.928;2022-09-13T11:59:41;2.78;;;1.35;;
66946;SDS011;53853;51.982;5.928;2022-09-13T12:04:49;1.70;;;1.00;;
66946;SDS011;53853;51.982;5.928;2022-09-13T12:07:27;4.57;;;1.25;;
66946;SDS011;53853;51.982;5.928;2022-09-13T12:10:03;1.92;;;1.00;;
66946;SDS011;53853;51.982;5.928;2022-09-13T12:12:43;1.92;;;0.80;;
66946;SDS011;53853;51.982;5.928;2022-09-13T12:15:18;4.43;;;0.90;;
66946;SDS011;53853;51.982;5.928;2022-09-13T12:17:55;5.50;;;1.10;;
66946;SDS011;53853;51.982;5.928;2022-09-13T12:20:30;3.25;;;1.42;;
66946;SDS011;53853;51.982;5.928;2022-09-13T12:23:02;1.80;;;1.00;;
66946;SDS011;53853;51.982;5.928;2022-09-13T12:25:38;2.95;;;1.10;;
66946;SDS011;53853;51.982;5.928;2022-09-13T12:28:18;3.20;;;0.90;;
66946;SDS011;53853;51.982;5.928;2022-09-13T12:30:54;2.45;;;1.10;;
66946;SDS011;53853;51.982;5.928;2022-09-13T12:36:04;3.03;;;1.30;;
66946;SDS011;53853;51.982;5.928;2022-09-13T12:42:13;2.30;;;0.82;;
66946;SDS011;53853;51.982;5.928;2022-09-13T12:45:12;2.80;;;0.85;;
66946;SDS011;53853;51.982;5.928;2022-09-13T12:48:15;3.22;;;0.93;;
66946;SDS011;53853;51.982;5.928;2022-09-13T12:50:59;2.78;;;1.10;;
66946;SDS011;53853;51.982;5.928;2022-09-13T12:53:59;2.78;;;0.98;;
66946;SDS011;53853;51.982;5.928;2022-09-13T12:56:52;4.00;;;1.33;;
66946;SDS011;53853;51.982;5.928;2022-09-13T12:59:35;2.83;;;1.20;;
66946;SDS011;53853;51.982;5.928;2022-09-13T13:02:29;2.72;;;1.08;;
66946;SDS011;53853;51.982;5.928;2022-09-13T13:05:03;1.83;;;0.90;;
66946;SDS011;53853;51.982;5.928;2022-09-13T13:07:42;2.15;;;1.08;;
66946;SDS011;53853;51.982;5.928;2022-09-13T13:10:23;3.13;;;0.90;;
66946;SDS011;53853;51.982;5.928;2022-09-13T13:12:55;2.83;;;1.00;;
66946;SDS011;53853;51.982;5.928;2022-09-13T13:15:54;3.95;;;1.75;;
66946;SDS011;53853;51.982;5.928;2022-09-13T13:18:41;2.05;;;1.10;;
66946;SDS011;53853;51.982;5.928;2022-09-13T13:33:17;3.35;;;1.27;;
66946;SDS011;53853;51.982;5.928;2022-09-13T13:35:53;2.05;;;0.75;;
66946;SDS011;53853;51.982;5.928;2022-09-13T13:38:39;6.30;;;1.35;;
66946;SDS011;53853;51.982;5.928;2022-09-13T13:50:14;2.00;;;0.88;;
66946;SDS011;53853;51.982;5.928;2022-09-13T13:52:52;2.30;;;0.90;;
66946;SDS011;53853;51.982;5.928;2022-09-13T13:55:40;3.63;;;1.10;;
66946;SDS011;53853;51.982;5.928;2022-09-13T13:58:21;2.42;;;0.90;;
66946;SDS011;53853;51.982;5.928;2022-09-13T14:01:04;2.92;;;1.20;;
66946;SDS011;53853;51.982;5.928;2022-09-13T14:03:41;2.28;;;0.85;;
66946;SDS011;53853;51.982;5.928;2022-09-13T14:06:22;2.65;;;1.02;;
66946;SDS011;53853;51.982;5.928;2022-09-13T14:09:06;1.50;;;0.80;;
66946;SDS011;53853;51.982;5.928;2022-09-13T14:11:49;1.95;;;1.02;;
66946;SDS011;53853;51.982;5.928;2022-09-13T14:14:31;2.53;;;0.95;;
66946;SDS011;53853;51.982;5.928;2022-09-13T14:17:25;2.33;;;1.08;;
66946;SDS011;53853;51.982;5.928;2022-09-13T14:20:13;1.42;;;0.70;;
66946;SDS011;53853;51.982;5.928;2022-09-13T14:22:45;1.83;;;0.90;;
66946;SDS011;53853;51.982;5.928;2022-09-13T14:25:23;3.30;;;0.95;;
66946;SDS011;53853;51.982;5.928;2022-09-13T14:27:54;4.60;;;1.05;;
66946;SDS011;53853;51.982;5.928;2022-09-13T14:30:28;0.98;;;0.57;;
66946;SDS011;53853;51.982;5.928;2022-09-13T14:33:02;3.20;;;1.05;;
66946;SDS011;53853;51.982;5.928;2022-09-13T14:35:34;4.05;;;0.82;;
66946;SDS011;53853;51.982;5.928;2022-09-13T14:38:09;2.55;;;0.90;;
66946;SDS011;53853;51.982;5.928;2022-09-13T14:40:45;4.05;;;1.10;;
66946;SDS011;53853;51.982;5.928;2022-09-13T14:43:17;1.77;;;1.10;;
66946;SDS011;53853;51.982;5.928;2022-09-13T14:45:51;2.00;;;0.90;;
66946;SDS011;53853;51.982;5.928;2022-09-13T14:48:26;1.70;;;0.80;;
66946;SDS011;53853;51.982;5.928;2022-09-13T14:51:00;2.85;;;1.10;;
66946;SDS011;53853;51.982;5.928;2022-09-13T14:53:35;1.70;;;0.80;;
66946;SDS011;53853;51.982;5.928;2022-09-13T14:56:11;4.88;;;1.17;;
66946;SDS011;53853;51.982;5.928;2022-09-13T14:58:44;4.32;;;1.55;;
66946;SDS011;53853;51.982;5.928;2022-09-13T15:01:16;1.95;;;1.10;;
66946;SDS011;53853;51.982;5.928;2022-09-13T15:03:50;3.40;;;1.33;;
66946;SDS011;53853;51.982;5.928;2022-09-13T15:06:25;2.17;;;0.95;;
66946;SDS011;53853;51.982;5.928;2022-09-13T15:08:57;2.73;;;0.83;;
66946;SDS011;53853;51.982;5.928;2022-09-13T15:14:25;4.38;;;1.25;;
66946;SDS011;53853;51.982;5.928;2022-09-13T15:16:59;2.47;;;1.23;;
66946;SDS011;53853;51.982;5.928;2022-09-13T15:19:37;4.93;;;1.52;;
66946;SDS011;53853;51.982;5.928;2022-09-13T15:22:11;2.47;;;1.08;;
66946;SDS011;53853;51.982;5.928;2022-09-13T15:24:52;2.92;;;1.20;;
66946;SDS011;53853;51.982;5.928;2022-09-13T15:27:27;3.28;;;1.00;;
66946;SDS011;53853;51.982;5.928;2022-09-13T15:30:00;4.50;;;1.30;;
66946;SDS011;53853;51.982;5.928;2022-09-13T15:32:33;4.07;;;1.10;;
66946;SDS011;53853;51.982;5.928;2022-09-13T15:35:15;4.68;;;1.30;;
66946;SDS011;53853;51.982;5.928;2022-09-13T15:37:57;3.65;;;1.27;;
66946;SDS011;53853;51.982;5.928;2022-09-13T15:40:28;5.00;;;1.52;;
66946;SDS011;53853;51.982;5.928;2022-09-13T15:43:11;5.47;;;1.00;;
66946;SDS011;53853;51.982;5.928;2022-09-13T15:45:41;1.75;;;0.85;;
66946;SDS011;53853;51.982;5.928;2022-09-13T15:48:15;2.08;;;1.10;;
66946;SDS011;53853;51.982;5.928;2022-09-13T15:51:06;3.92;;;1.27;;
66946;SDS011;53853;51.982;5.928;2022-09-13T15:53:37;3.28;;;1.33;;
66946;SDS011;53853;51.982;5.928;2022-09-13T15:56:11;4.05;;;1.20;;
66946;SDS011;53853;51.982;5.928;2022-09-13T15:58:46;9.70;;;1.35;;
66946;SDS011;53853;51.982;5.928;2022-09-13T16:01:16;1.98;;;0.90;;
66946;SDS011;53853;51.982;5.928;2022-09-13T16:03:46;3.67;;;1.17;;
66946;SDS011;53853;51.982;5.928;2022-09-13T16:06:16;1.77;;;0.82;;
66946;SDS011;53853;51.982;5.928;2022-09-13T16:08:46;2.25;;;1.15;;
66946;SDS011;53853;51.982;5.928;2022-09-13T16:11:16;4.32;;;1.10;;
66946;SDS011;53853;51.982;5.928;2022-09-13T16:13:48;3.22;;;1.00;;
66946;SDS011;53853;51.982;5.928;2022-09-13T16:16:18;4.40;;;1.25;;
66946;SDS011;53853;51.982;5.928;2022-09-13T16:18:48;2.72;;;1.02;;
66946;SDS011;53853;51.982;5.928;2022-09-13T16:21:18;4.47;;;0.95;;
66946;SDS011;53853;51.982;5.928;2022-09-13T16:23:47;2.30;;;1.02;;
66946;SDS011;53853;51.982;5.928;2022-09-13T16:26:17;4.47;;;1.05;;
66946;SDS011;53853;51.982;5.928;2022-09-13T16:28:50;4.45;;;1.20;;
66946;SDS011;53853;51.982;5.928;2022-09-13T16:31:19;5.20;;;0.98;;
66946;SDS011;53853;51.982;5.928;2022-09-13T16:33:49;4.15;;;1.02;;
66946;SDS011;53853;51.982;5.928;2022-09-13T16:36:19;2.65;;;0.80;;
66946;SDS011;53853;51.982;5.928;2022-09-13T16:38:49;3.70;;;1.05;;